sensor_id;sensor_type;location;lat;lon;timestamp;temperature;humidity
65404;DHT22;52014;52.088;5.096;2023-04-01T00:02:16;12.40;99.90
65404;DHT22;52014;52.088;5.096;2023-04-01T00:04:42;12.40;99.90
65404;DHT22;52014;52.088;5.096;2023-04-01T00:07:08;12.40;99.90
65404;DHT22;52014;52.088;5.096;2023-04-01T00:09:34;12.40;99.90
65404;DHT22;52014;52.088;5.096;2023-04-01T00:11:59;12.30;99.90
65404;DHT22;52014;52.088;5.096;2023-04-01T00:14:25;12.30;99.90
65404;DHT22;52014;52.088;5.096;2023-04-01T00:16:50;12.30;99.90
65404;DHT22;52014;52.088;5.096;2023-04-01T00:19:15;12.30;99.90
65404;DHT22;52014;52.088;5.096;2023-04-01T00:21:41;12.30;99.90
65404;DHT22;52014;52.088;5.096;2023-04-01T00:24:07;12.30;99.90
65404;DHT22;52014;52.088;5.096;2023-04-01T00:26:32;12.30;99.90
65404;DHT22;52014;52.088;5.096;2023-04-01T00:28:58;12.20;99.90
65404;DHT22;52014;52.088;5.096;2023-04-01T00:31:23;12.30;99.90
65404;DHT22;52014;52.088;5.096;2023-04-01T00:33:49;12.20;99.90
65404;DHT22;52014;52.088;5.096;2023-04-01T00:36:15;12.20;99.90
65404;DHT22;52014;52.088;5.096;2023-04-01T00:38:41;12.20;99.90
65404;DHT22;52014;52.088;5.096;2023-04-01T00:41:07;12.20;99.90
65404;DHT22;52014;52.088;5.096;2023-04-01T00:43:33;12.20;99.90
65404;DHT22;52014;52.088;5.096;2023-04-01T00:45:59;12.20;99.90
65404;DHT22;52014;52.088;5.096;2023-04-01T00:48:29;12.20;99.90
65404;DHT22;52014;52.088;5.096;2023-04-01T00:50:58;12.10;99.90
65404;DHT22;52014;52.088;5.096;2023-04-01T00:53:25;12.10;99.90
65404;DHT22;52014;52.088;5.096;2023-04-01T00:56:00;12.10;99.90
65404;DHT22;52014;52.088;5.096;2023-04-01T00:58:29;12.00;99.90
65404;DHT22;52014;52.088;5.096;2023-04-01T01:00:56;12.00;99.90
65404;DHT22;52014;52.088;5.096;2023-04-01T01:03:22;12.10;99.90
65404;DHT22;52014;52.088;5.096;2023-04-01T01:11:18;12.10;99.90
65404;DHT22;52014;52.088;5.096;2023-04-01T01:13:50;12.00;99.90
65404;DHT22;52014;52.088;5.096;2023-04-01T01:16:29;12.00;99.90
65404;DHT22;52014;52.088;5.096;2023-04-01T01:18:58;12.00;99.90
65404;DHT22;52014;52.088;5.096;2023-04-01T01:26:37;12.00;99.90
65404;DHT22;52014;52.088;5.096;2023-04-01T01:34:32;12.00;99.90
65404;DHT22;52014;52.088;5.096;2023-04-01T01:37:03;12.00;99.90
65404;DHT22;52014;52.088;5.096;2023-04-01T01:39:31;11.90;99.90
65404;DHT22;52014;52.088;5.096;2023-04-01T01:41:58;12.00;99.90
65404;DHT22;52014;52.088;5.096;2023-04-01T01:44:26;11.90;99.90
65404;DHT22;52014;52.088;5.096;2023-04-01T01:46:52;12.00;99.90
65404;DHT22;52014;52.088;5.096;2023-04-01T01:49:18;11.90;99.90
65404;DHT22;52014;52.088;5.096;2023-04-01T01:51:44;11.90;99.90
65404;DHT22;52014;52.088;5.096;2023-04-01T01:54:13;11.90;99.90
65404;DHT22;52014;52.088;5.096;2023-04-01T01:56:38;11.90;99.90
65404;DHT22;52014;52.088;5.096;2023-04-01T01:59:05;11.90;99.90
65404;DHT22;52014;52.088;5.096;2023-04-01T02:01:34;11.80;99.90
65404;DHT22;52014;52.088;5.096;2023-04-01T02:04:00;11.80;99.90
65404;DHT22;52014;52.088;5.096;2023-04-01T02:06:26;11.80;99.90
65404;DHT22;52014;52.088;5.096;2023-04-01T02:09:04;11.70;99.90
65404;DHT22;52014;52.088;5.096;2023-04-01T02:11:34;11.70;99.90
65404;DHT22;52014;52.088;5.096;2023-04-01T02:14:03;11.70;99.90
65404;DHT22;52014;52.088;5.096;2023-04-01T02:18:58;11.90;99.90
65404;DHT22;52014;52.088;5.096;2023-04-01T02:21:26;11.80;99.90
65404;DHT22;52014;52.088;5.096;2023-04-01T02:23:52;11.80;99.90
65404;DHT22;52014;52.088;5.096;2023-04-01T02:26:19;11.90;99.90
65404;DHT22;52014;52.088;5.096;2023-04-01T02:28:45;11.70;99.90
65404;DHT22;52014;52.088;5.096;2023-04-01T02:31:11;11.80;99.90
65404;DHT22;52014;52.088;5.096;2023-04-01T02:33:38;11.70;99.90
65404;DHT22;52014;52.088;5.096;2023-04-01T02:36:04;11.80;99.90
65404;DHT22;52014;52.088;5.096;2023-04-01T02:38:30;11.80;99.90
65404;DHT22;52014;52.088;5.096;2023-04-01T02:40:56;11.80;99.90
65404;DHT22;52014;52.088;5.096;2023-04-01T02:43:22;11.80;99.90
65404;DHT22;52014;52.088;5.096;2023-04-01T02:45:48;11.80;99.90
65404;DHT22;52014;52.088;5.096;2023-04-01T02:48:13;11.70;99.90
65404;DHT22;52014;52.088;5.096;2023-04-01T02:50:39;11.70;99.90
65404;DHT22;52014;52.088;5.096;2023-04-01T02:53:05;11.80;99.90
65404;DHT22;52014;52.088;5.096;2023-04-01T02:55:32;11.80;99.90
65404;DHT22;52014;52.088;5.096;2023-04-01T02:57:57;11.80;99.90
65404;DHT22;52014;52.088;5.096;2023-04-01T03:00:23;11.80;99.90
65404;DHT22;52014;52.088;5.096;2023-04-01T03:02:48;11.80;99.90
65404;DHT22;52014;52.088;5.096;2023-04-01T03:05:14;11.80;99.90
65404;DHT22;52014;52.088;5.096;2023-04-01T03:07:39;11.80;99.90
65404;DHT22;52014;52.088;5.096;2023-04-01T03:10:05;11.80;99.90
65404;DHT22;52014;52.088;5.096;2023-04-01T03:12:31;11.80;99.90
65404;DHT22;52014;52.088;5.096;2023-04-01T03:14:56;11.80;99.90
65404;DHT22;52014;52.088;5.096;2023-04-01T03:17:22;11.80;99.90
65404;DHT22;52014;52.088;5.096;2023-04-01T03:19:47;11.80;99.90
65404;DHT22;52014;52.088;5.096;2023-04-01T03:22:12;11.80;99.90
65404;DHT22;52014;52.088;5.096;2023-04-01T03:24:38;11.90;99.90
65404;DHT22;52014;52.088;5.096;2023-04-01T03:27:03;11.90;99.90
65404;DHT22;52014;52.088;5.096;2023-04-01T03:29:29;11.80;99.90
65404;DHT22;52014;52.088;5.096;2023-04-01T03:31:54;11.90;99.90
65404;DHT22;52014;52.088;5.096;2023-04-01T03:34:23;11.90;99.90
65404;DHT22;52014;52.088;5.096;2023-04-01T03:36:48;11.80;99.90
65404;DHT22;52014;52.088;5.096;2023-04-01T03:39:14;11.80;99.90
65404;DHT22;52014;52.088;5.096;2023-04-01T03:41:44;11.80;99.90
65404;DHT22;52014;52.088;5.096;2023-04-01T03:44:09;11.90;99.90
65404;DHT22;52014;52.088;5.096;2023-04-01T03:46:34;11.90;99.90
65404;DHT22;52014;52.088;5.096;2023-04-01T03:49:00;11.90;99.90
65404;DHT22;52014;52.088;5.096;2023-04-01T03:51:25;12.00;99.90
65404;DHT22;52014;52.088;5.096;2023-04-01T03:53:51;11.90;99.90
65404;DHT22;52014;52.088;5.096;2023-04-01T03:56:16;12.00;99.90
65404;DHT22;52014;52.088;5.096;2023-04-01T03:58:42;12.00;99.90
65404;DHT22;52014;52.088;5.096;2023-04-01T04:01:14;12.00;99.90
65404;DHT22;52014;52.088;5.096;2023-04-01T04:03:40;12.00;99.90
65404;DHT22;52014;52.088;5.096;2023-04-01T04:06:07;12.00;99.90
65404;DHT22;52014;52.088;5.096;2023-04-01T04:08:35;12.00;99.90
65404;DHT22;52014;52.088;5.096;2023-04-01T04:11:00;12.10;99.90
65404;DHT22;52014;52.088;5.096;2023-04-01T04:13:25;12.10;99.90
65404;DHT22;52014;52.088;5.096;2023-04-01T04:15:51;12.10;99.90
65404;DHT22;52014;52.088;5.096;2023-04-01T04:18:16;12.10;99.90
65404;DHT22;52014;52.088;5.096;2023-04-01T04:20:45;12.10;99.90
65404;DHT22;52014;52.088;5.096;2023-04-01T04:23:15;12.20;99.90
65404;DHT22;52014;52.088;5.096;2023-04-01T04:25:40;12.10;99.90
65404;DHT22;52014;52.088;5.096;2023-04-01T04:28:06;12.20;99.90
65404;DHT22;52014;52.088;5.096;2023-04-01T04:30:31;12.20;99.90
65404;DHT22;52014;52.088;5.096;2023-04-01T04:32:57;12.20;99.90
65404;DHT22;52014;52.088;5.096;2023-04-01T04:35:22;12.20;99.90
65404;DHT22;52014;52.088;5.096;2023-04-01T04:37:48;12.20;99.90
65404;DHT22;52014;52.088;5.096;2023-04-01T04:40:13;12.10;99.90
65404;DHT22;52014;52.088;5.096;2023-04-01T04:42:39;12.10;99.90
65404;DHT22;52014;52.088;5.096;2023-04-01T04:45:04;12.10;99.90
65404;DHT22;52014;52.088;5.096;2023-04-01T04:47:30;12.10;99.90
65404;DHT22;52014;52.088;5.096;2023-04-01T04:49:56;12.20;99.90
65404;DHT22;52014;52.088;5.096;2023-04-01T04:52:21;12.10;99.90
65404;DHT22;52014;52.088;5.096;2023-04-01T04:54:47;12.10;99.90
65404;DHT22;52014;52.088;5.096;2023-04-01T04:57:12;12.20;99.90
65404;DHT22;52014;52.088;5.096;2023-04-01T04:59:37;12.10;99.90
65404;DHT22;52014;52.088;5.096;2023-04-01T05:02:03;12.10;99.90
65404;DHT22;52014;52.088;5.096;2023-04-01T05:04:28;12.10;99.90
65404;DHT22;52014;52.088;5.096;2023-04-01T05:06:54;12.10;99.90
65404;DHT22;52014;52.088;5.096;2023-04-01T05:09:19;12.10;99.90
65404;DHT22;52014;52.088;5.096;2023-04-01T05:11:45;12.10;99.90
65404;DHT22;52014;52.088;5.096;2023-04-01T05:14:16;12.10;99.90
65404;DHT22;52014;52.088;5.096;2023-04-01T05:16:41;12.10;99.90
65404;DHT22;52014;52.088;5.096;2023-04-01T05:19:07;12.10;99.90
65404;DHT22;52014;52.088;5.096;2023-04-01T05:21:32;12.10;99.90
65404;DHT22;52014;52.088;5.096;2023-04-01T05:23:57;12.10;99.90
65404;DHT22;52014;52.088;5.096;2023-04-01T05:26:23;12.10;99.90
65404;DHT22;52014;52.088;5.096;2023-04-01T05:28:48;12.10;99.90
65404;DHT22;52014;52.088;5.096;2023-04-01T05:31:14;12.20;99.90
65404;DHT22;52014;52.088;5.096;2023-04-01T05:33:39;12.10;99.90
65404;DHT22;52014;52.088;5.096;2023-04-01T05:36:05;12.20;99.90
65404;DHT22;52014;52.088;5.096;2023-04-01T05:38:31;12.10;99.90
65404;DHT22;52014;52.088;5.096;2023-04-01T05:41:00;12.10;99.90
65404;DHT22;52014;52.088;5.096;2023-04-01T05:43:25;12.10;99.90
65404;DHT22;52014;52.088;5.096;2023-04-01T05:45:51;12.10;99.90
65404;DHT22;52014;52.088;5.096;2023-04-01T05:48:16;12.10;99.90
65404;DHT22;52014;52.088;5.096;2023-04-01T05:50:42;12.10;99.90
65404;DHT22;52014;52.088;5.096;2023-04-01T05:53:07;12.10;99.90
65404;DHT22;52014;52.088;5.096;2023-04-01T05:55:34;12.10;99.90
65404;DHT22;52014;52.088;5.096;2023-04-01T05:57:59;12.00;99.90
65404;DHT22;52014;52.088;5.096;2023-04-01T06:00:25;12.00;99.90
65404;DHT22;52014;52.088;5.096;2023-04-01T06:02:50;12.00;99.90
65404;DHT22;52014;52.088;5.096;2023-04-01T06:05:19;12.00;99.90
65404;DHT22;52014;52.088;5.096;2023-04-01T06:07:44;12.00;99.90
65404;DHT22;52014;52.088;5.096;2023-04-01T06:10:14;12.00;99.90
65404;DHT22;52014;52.088;5.096;2023-04-01T06:15:18;12.00;99.90
65404;DHT22;52014;52.088;5.096;2023-04-01T06:20:42;12.10;99.90
65404;DHT22;52014;52.088;5.096;2023-04-01T06:36:10;12.00;99.90
65404;DHT22;52014;52.088;5.096;2023-04-01T06:38:43;12.00;99.90
65404;DHT22;52014;52.088;5.096;2023-04-01T06:41:32;12.00;99.90
65404;DHT22;52014;52.088;5.096;2023-04-01T06:49:19;12.00;99.90
65404;DHT22;52014;52.088;5.096;2023-04-01T06:54:16;12.10;99.90
65404;DHT22;52014;52.088;5.096;2023-04-01T06:56:44;12.10;99.90
65404;DHT22;52014;52.088;5.096;2023-04-01T06:59:12;12.00;99.90
65404;DHT22;52014;52.088;5.096;2023-04-01T07:01:40;12.10;99.90
65404;DHT22;52014;52.088;5.096;2023-04-01T07:04:09;12.10;99.90
65404;DHT22;52014;52.088;5.096;2023-04-01T07:06:41;12.10;99.90
65404;DHT22;52014;52.088;5.096;2023-04-01T07:09:10;12.10;99.90
65404;DHT22;52014;52.088;5.096;2023-04-01T07:11:37;12.10;99.90
65404;DHT22;52014;52.088;5.096;2023-04-01T07:14:22;12.00;99.90
65404;DHT22;52014;52.088;5.096;2023-04-01T07:19:26;12.00;99.90
65404;DHT22;52014;52.088;5.096;2023-04-01T07:21:55;12.00;99.90
65404;DHT22;52014;52.088;5.096;2023-04-01T07:24:24;12.10;99.90
65404;DHT22;52014;52.088;5.096;2023-04-01T07:26:52;12.10;99.90
65404;DHT22;52014;52.088;5.096;2023-04-01T07:29:18;12.10;99.90
65404;DHT22;52014;52.088;5.096;2023-04-01T07:32:05;12.10;99.90
65404;DHT22;52014;52.088;5.096;2023-04-01T07:34:45;12.20;99.90
65404;DHT22;52014;52.088;5.096;2023-04-01T07:37:21;12.20;99.90
65404;DHT22;52014;52.088;5.096;2023-04-01T07:42:33;12.10;99.90
65404;DHT22;52014;52.088;5.096;2023-04-01T07:45:09;12.20;99.90
65404;DHT22;52014;52.088;5.096;2023-04-01T07:47:41;12.20;99.90
65404;DHT22;52014;52.088;5.096;2023-04-01T07:52:48;12.20;99.90
65404;DHT22;52014;52.088;5.096;2023-04-01T07:55:21;12.30;99.90
65404;DHT22;52014;52.088;5.096;2023-04-01T08:00:22;12.20;99.90
65404;DHT22;52014;52.088;5.096;2023-04-01T08:05:41;12.30;99.90
65404;DHT22;52014;52.088;5.096;2023-04-01T08:10:50;12.30;99.90
65404;DHT22;52014;52.088;5.096;2023-04-01T08:13:28;12.30;99.90
65404;DHT22;52014;52.088;5.096;2023-04-01T08:16:04;12.30;99.90
65404;DHT22;52014;52.088;5.096;2023-04-01T08:21:00;12.40;99.90
65404;DHT22;52014;52.088;5.096;2023-04-01T08:23:27;12.40;99.90
65404;DHT22;52014;52.088;5.096;2023-04-01T08:26:04;12.40;99.90
65404;DHT22;52014;52.088;5.096;2023-04-01T08:28:41;12.40;99.90
65404;DHT22;52014;52.088;5.096;2023-04-01T08:31:13;12.40;99.90
65404;DHT22;52014;52.088;5.096;2023-04-01T08:33:41;12.40;99.90
65404;DHT22;52014;52.088;5.096;2023-04-01T08:36:12;12.40;99.90
65404;DHT22;52014;52.088;5.096;2023-04-01T08:46:19;12.40;99.90
65404;DHT22;52014;52.088;5.096;2023-04-01T08:54:22;12.40;99.90
65404;DHT22;52014;52.088;5.096;2023-04-01T08:56:59;12.50;99.90
65404;DHT22;52014;52.088;5.096;2023-04-01T09:01:58;12.50;99.90
65404;DHT22;52014;52.088;5.096;2023-04-01T09:05:17;12.60;99.90
65404;DHT22;52014;52.088;5.096;2023-04-01T09:12:34;12.60;99.90
65404;DHT22;52014;52.088;5.096;2023-04-01T09:15:13;12.70;99.90
65404;DHT22;52014;52.088;5.096;2023-04-01T09:23:21;12.80;99.90
65404;DHT22;52014;52.088;5.096;2023-04-01T09:25:51;12.80;99.90
65404;DHT22;52014;52.088;5.096;2023-04-01T09:31:08;12.80;99.90
65404;DHT22;52014;52.088;5.096;2023-04-01T09:36:29;12.90;99.90
65404;DHT22;52014;52.088;5.096;2023-04-01T09:42:06;12.90;99.90
65404;DHT22;52014;52.088;5.096;2023-04-01T09:44:41;13.00;99.90
65404;DHT22;52014;52.088;5.096;2023-04-01T09:49:57;13.00;99.90
65404;DHT22;52014;52.088;5.096;2023-04-01T10:03:13;13.10;99.90
65404;DHT22;52014;52.088;5.096;2023-04-01T10:16:45;13.20;99.90
65404;DHT22;52014;52.088;5.096;2023-04-01T10:19:33;13.20;99.90
65404;DHT22;52014;52.088;5.096;2023-04-01T10:24:56;13.30;99.90
65404;DHT22;52014;52.088;5.096;2023-04-01T10:30:19;13.50;99.90
65404;DHT22;52014;52.088;5.096;2023-04-01T10:35:43;13.50;99.90
65404;DHT22;52014;52.088;5.096;2023-04-01T10:46:19;13.20;99.90
65404;DHT22;52014;52.088;5.096;2023-04-01T10:51:18;13.10;99.90
65404;DHT22;52014;52.088;5.096;2023-04-01T10:53:47;13.10;99.90
65404;DHT22;52014;52.088;5.096;2023-04-01T10:56:28;13.20;99.90
65404;DHT22;52014;52.088;5.096;2023-04-01T10:59:09;13.20;99.90
65404;DHT22;52014;52.088;5.096;2023-04-01T11:02:03;13.20;99.90
65404;DHT22;52014;52.088;5.096;2023-04-01T11:07:17;13.40;99.90
65404;DHT22;52014;52.088;5.096;2023-04-01T11:09:50;13.40;99.90
65404;DHT22;52014;52.088;5.096;2023-04-01T11:12:31;13.50;99.90
65404;DHT22;52014;52.088;5.096;2023-04-01T11:20:19;14.10;99.90
65404;DHT22;52014;52.088;5.096;2023-04-01T11:22:58;14.10;99.90
65404;DHT22;52014;52.088;5.096;2023-04-01T11:33:19;13.90;99.90
65404;DHT22;52014;52.088;5.096;2023-04-01T11:41:13;13.70;99.90
65404;DHT22;52014;52.088;5.096;2023-04-01T11:43:49;13.70;99.90
65404;DHT22;52014;52.088;5.096;2023-04-01T11:46:24;13.60;99.90
65404;DHT22;52014;52.088;5.096;2023-04-01T11:51:32;13.70;99.90
65404;DHT22;52014;52.088;5.096;2023-04-01T11:56:32;13.90;99.90
65404;DHT22;52014;52.088;5.096;2023-04-01T12:01:48;13.90;99.90
65404;DHT22;52014;52.088;5.096;2023-04-01T12:17:39;13.60;99.90
65404;DHT22;52014;52.088;5.096;2023-04-01T12:22:43;13.60;99.90
65404;DHT22;52014;52.088;5.096;2023-04-01T12:33:28;13.60;99.90
65404;DHT22;52014;52.088;5.096;2023-04-01T12:36:05;13.60;99.90
65404;DHT22;52014;52.088;5.096;2023-04-01T12:44:08;13.60;99.90
65404;DHT22;52014;52.088;5.096;2023-04-01T12:51:55;13.40;99.90
65404;DHT22;52014;52.088;5.096;2023-04-01T13:05:15;13.50;99.90
65404;DHT22;52014;52.088;5.096;2023-04-01T13:07:48;13.60;99.90
65404;DHT22;52014;52.088;5.096;2023-04-01T13:13:20;13.60;99.90
65404;DHT22;52014;52.088;5.096;2023-04-01T13:15:52;13.60;99.90
65404;DHT22;52014;52.088;5.096;2023-04-01T13:18:24;13.60;99.90
65404;DHT22;52014;52.088;5.096;2023-04-01T13:20:54;13.70;99.90
65404;DHT22;52014;52.088;5.096;2023-04-01T13:23:24;13.70;99.90
65404;DHT22;52014;52.088;5.096;2023-04-01T13:28:34;13.90;99.90
65404;DHT22;52014;52.088;5.096;2023-04-01T13:36:05;13.90;99.90
65404;DHT22;52014;52.088;5.096;2023-04-01T13:43:42;13.60;99.90
65404;DHT22;52014;52.088;5.096;2023-04-01T13:49:23;13.60;99.90
65404;DHT22;52014;52.088;5.096;2023-04-01T13:54:18;13.50;99.90
65404;DHT22;52014;52.088;5.096;2023-04-01T13:56:49;13.50;99.90
65404;DHT22;52014;52.088;5.096;2023-04-01T13:59:35;13.40;99.90
65404;DHT22;52014;52.088;5.096;2023-04-01T14:02:14;13.40;99.90
65404;DHT22;52014;52.088;5.096;2023-04-01T14:07:46;13.20;99.90
65404;DHT22;52014;52.088;5.096;2023-04-01T14:10:28;13.20;99.90
65404;DHT22;52014;52.088;5.096;2023-04-01T14:12:58;13.10;99.90
65404;DHT22;52014;52.088;5.096;2023-04-01T14:15:39;13.10;99.90
65404;DHT22;52014;52.088;5.096;2023-04-01T14:33:37;13.30;99.90
65404;DHT22;52014;52.088;5.096;2023-04-01T14:44:01;13.40;99.90
65404;DHT22;52014;52.088;5.096;2023-04-01T14:48:59;13.50;99.90
65404;DHT22;52014;52.088;5.096;2023-04-01T14:51:31;13.40;99.90
65404;DHT22;52014;52.088;5.096;2023-04-01T14:54:17;13.50;99.90
65404;DHT22;52014;52.088;5.096;2023-04-01T14:56:51;13.50;99.90
65404;DHT22;52014;52.088;5.096;2023-04-01T14:59:27;13.50;99.90
65404;DHT22;52014;52.088;5.096;2023-04-01T15:01:55;13.50;99.90
65404;DHT22;52014;52.088;5.096;2023-04-01T15:04:37;13.50;99.90
65404;DHT22;52014;52.088;5.096;2023-04-01T15:12:38;13.30;99.90
65404;DHT22;52014;52.088;5.096;2023-04-01T15:18:10;13.30;99.90
65404;DHT22;52014;52.088;5.096;2023-04-01T15:20:45;13.40;99.90
65404;DHT22;52014;52.088;5.096;2023-04-01T15:28:22;13.30;99.90
65404;DHT22;52014;52.088;5.096;2023-04-01T15:43:44;13.20;99.90
65404;DHT22;52014;52.088;5.096;2023-04-01T15:46:53;13.20;99.90
65404;DHT22;52014;52.088;5.096;2023-04-01T15:54:20;13.20;99.90
65404;DHT22;52014;52.088;5.096;2023-04-01T15:57:01;13.20;99.90
65404;DHT22;52014;52.088;5.096;2023-04-01T15:59:38;13.20;99.90
65404;DHT22;52014;52.088;5.096;2023-04-01T16:07:27;13.20;99.90
65404;DHT22;52014;52.088;5.096;2023-04-01T16:12:53;13.10;99.90
65404;DHT22;52014;52.088;5.096;2023-04-01T16:23:20;13.00;99.90
65404;DHT22;52014;52.088;5.096;2023-04-01T16:25:57;13.10;99.90
65404;DHT22;52014;52.088;5.096;2023-04-01T16:28:30;13.10;99.90
65404;DHT22;52014;52.088;5.096;2023-04-01T16:31:03;13.00;99.90
65404;DHT22;52014;52.088;5.096;2023-04-01T16:33:35;13.00;99.90
65404;DHT22;52014;52.088;5.096;2023-04-01T16:39:06;13.00;99.90
65404;DHT22;52014;52.088;5.096;2023-04-01T16:41:36;13.10;99.90
65404;DHT22;52014;52.088;5.096;2023-04-01T16:44:16;13.00;99.90
65404;DHT22;52014;52.088;5.096;2023-04-01T16:46:43;13.00;99.90
65404;DHT22;52014;52.088;5.096;2023-04-01T16:51:44;13.00;99.90
65404;DHT22;52014;52.088;5.096;2023-04-01T16:56:43;12.90;99.90
65404;DHT22;52014;52.088;5.096;2023-04-01T16:59:21;12.80;99.90
65404;DHT22;52014;52.088;5.096;2023-04-01T17:01:53;12.80;99.90
65404;DHT22;52014;52.088;5.096;2023-04-01T17:09:34;12.60;99.90
65404;DHT22;52014;52.088;5.096;2023-04-01T17:14:30;12.60;99.90
65404;DHT22;52014;52.088;5.096;2023-04-01T17:17:12;12.70;99.90
65404;DHT22;52014;52.088;5.096;2023-04-01T17:19:45;12.60;99.90
65404;DHT22;52014;52.088;5.096;2023-04-01T17:25:14;12.60;99.90
65404;DHT22;52014;52.088;5.096;2023-04-01T17:27:57;12.50;99.90
65404;DHT22;52014;52.088;5.096;2023-04-01T17:30:28;12.50;99.90
65404;DHT22;52014;52.088;5.096;2023-04-01T17:33:03;12.50;99.90
65404;DHT22;52014;52.088;5.096;2023-04-01T17:35:37;12.50;99.90
65404;DHT22;52014;52.088;5.096;2023-04-01T17:43:20;12.30;99.90
65404;DHT22;52014;52.088;5.096;2023-04-01T17:45:54;12.20;99.90
65404;DHT22;52014;52.088;5.096;2023-04-01T17:48:24;12.10;99.90
65404;DHT22;52014;52.088;5.096;2023-04-01T17:50:53;12.10;99.90
65404;DHT22;52014;52.088;5.096;2023-04-01T18:08:56;12.10;99.90
65404;DHT22;52014;52.088;5.096;2023-04-01T18:14:23;12.00;99.90
65404;DHT22;52014;52.088;5.096;2023-04-01T18:19:50;12.00;99.90
65404;DHT22;52014;52.088;5.096;2023-04-01T18:22:22;12.00;99.90
65404;DHT22;52014;52.088;5.096;2023-04-01T18:24:56;11.90;99.90
65404;DHT22;52014;52.088;5.096;2023-04-01T18:27:24;11.90;99.90
65404;DHT22;52014;52.088;5.096;2023-04-01T18:29:54;11.90;99.90
65404;DHT22;52014;52.088;5.096;2023-04-01T18:32:24;11.90;99.90
65404;DHT22;52014;52.088;5.096;2023-04-01T18:34:56;11.90;99.90
65404;DHT22;52014;52.088;5.096;2023-04-01T18:37:28;11.80;99.90
65404;DHT22;52014;52.088;5.096;2023-04-01T18:40:01;11.90;99.90
65404;DHT22;52014;52.088;5.096;2023-04-01T18:44:56;11.90;99.90
65404;DHT22;52014;52.088;5.096;2023-04-01T18:49:57;11.70;99.90
65404;DHT22;52014;52.088;5.096;2023-04-01T18:57:39;11.70;99.90
65404;DHT22;52014;52.088;5.096;2023-04-01T19:00:08;11.60;99.90
65404;DHT22;52014;52.088;5.096;2023-04-01T19:02:40;11.70;99.90
65404;DHT22;52014;52.088;5.096;2023-04-01T19:05:14;11.60;99.90
65404;DHT22;52014;52.088;5.096;2023-04-01T19:07:46;11.60;99.90
65404;DHT22;52014;52.088;5.096;2023-04-01T19:10:13;11.50;99.90
65404;DHT22;52014;52.088;5.096;2023-04-01T19:12:57;11.50;99.90
65404;DHT22;52014;52.088;5.096;2023-04-01T19:15:27;11.50;99.90
65404;DHT22;52014;52.088;5.096;2023-04-01T19:20:50;11.50;99.90
65404;DHT22;52014;52.088;5.096;2023-04-01T19:23:29;11.40;99.90
65404;DHT22;52014;52.088;5.096;2023-04-01T19:25:57;11.40;99.90
65404;DHT22;52014;52.088;5.096;2023-04-01T19:28:26;11.40;99.90
65404;DHT22;52014;52.088;5.096;2023-04-01T19:30:58;11.40;99.90
65404;DHT22;52014;52.088;5.096;2023-04-01T19:35:54;11.30;99.90
65404;DHT22;52014;52.088;5.096;2023-04-01T19:38:28;11.20;99.90
65404;DHT22;52014;52.088;5.096;2023-04-01T19:46:14;11.10;99.90
65404;DHT22;52014;52.088;5.096;2023-04-01T19:48:48;11.10;99.90
65404;DHT22;52014;52.088;5.096;2023-04-01T19:56:22;11.10;99.90
65404;DHT22;52014;52.088;5.096;2023-04-01T20:01:27;11.00;99.90
65404;DHT22;52014;52.088;5.096;2023-04-01T20:04:15;11.00;99.90
65404;DHT22;52014;52.088;5.096;2023-04-01T20:09:14;10.90;99.90
65404;DHT22;52014;52.088;5.096;2023-04-01T20:11:58;10.80;99.90
65404;DHT22;52014;52.088;5.096;2023-04-01T20:17:15;10.70;99.90
65404;DHT22;52014;52.088;5.096;2023-04-01T20:19:59;10.70;99.90
65404;DHT22;52014;52.088;5.096;2023-04-01T20:27:51;10.60;99.90
65404;DHT22;52014;52.088;5.096;2023-04-01T20:35:45;10.50;99.90
65404;DHT22;52014;52.088;5.096;2023-04-01T20:40:52;10.40;99.90
65404;DHT22;52014;52.088;5.096;2023-04-01T20:43:30;10.40;99.90
65404;DHT22;52014;52.088;5.096;2023-04-01T20:46:14;10.40;99.90
65404;DHT22;52014;52.088;5.096;2023-04-01T20:51:26;10.30;99.90
65404;DHT22;52014;52.088;5.096;2023-04-01T20:54:14;10.20;99.90
65404;DHT22;52014;52.088;5.096;2023-04-01T20:59:20;10.20;99.90
65404;DHT22;52014;52.088;5.096;2023-04-01T21:04:22;10.00;99.90
65404;DHT22;52014;52.088;5.096;2023-04-01T21:09:46;10.00;99.90
65404;DHT22;52014;52.088;5.096;2023-04-01T21:12:25;9.90;99.90
65404;DHT22;52014;52.088;5.096;2023-04-01T21:25:44;9.90;99.90
65404;DHT22;52014;52.088;5.096;2023-04-01T21:30:41;9.80;99.90
65404;DHT22;52014;52.088;5.096;2023-04-01T21:36:11;9.80;99.90
65404;DHT22;52014;52.088;5.096;2023-04-01T21:46:46;9.70;99.90
65404;DHT22;52014;52.088;5.096;2023-04-01T21:54:56;9.70;99.90
65404;DHT22;52014;52.088;5.096;2023-04-01T22:03:02;9.70;99.90
65404;DHT22;52014;52.088;5.096;2023-04-01T22:05:31;9.60;99.90
65404;DHT22;52014;52.088;5.096;2023-04-01T22:08:03;9.60;99.90
65404;DHT22;52014;52.088;5.096;2023-04-01T22:13:49;9.60;99.90
65404;DHT22;52014;52.088;5.096;2023-04-01T22:16:13;9.60;99.90
65404;DHT22;52014;52.088;5.096;2023-04-01T22:18:44;9.50;99.90
65404;DHT22;52014;52.088;5.096;2023-04-01T22:21:29;9.50;99.90
65404;DHT22;52014;52.088;5.096;2023-04-01T22:24:16;9.50;99.90
65404;DHT22;52014;52.088;5.096;2023-04-01T22:26:53;9.40;99.90
65404;DHT22;52014;52.088;5.096;2023-04-01T22:29:25;9.40;99.90
65404;DHT22;52014;52.088;5.096;2023-04-01T22:31:55;9.40;99.90
65404;DHT22;52014;52.088;5.096;2023-04-01T22:40:00;9.40;99.90
65404;DHT22;52014;52.088;5.096;2023-04-01T22:45:15;9.30;99.90
65404;DHT22;52014;52.088;5.096;2023-04-01T22:50:25;9.30;99.90
65404;DHT22;52014;52.088;5.096;2023-04-01T22:52:56;9.30;99.90
65404;DHT22;52014;52.088;5.096;2023-04-01T22:55:25;9.30;99.90
65404;DHT22;52014;52.088;5.096;2023-04-01T22:58:00;9.30;99.90
65404;DHT22;52014;52.088;5.096;2023-04-01T23:00:29;9.30;99.90
65404;DHT22;52014;52.088;5.096;2023-04-01T23:05:31;9.30;99.90
65404;DHT22;52014;52.088;5.096;2023-04-01T23:10:44;9.20;99.90
65404;DHT22;52014;52.088;5.096;2023-04-01T23:13:18;9.20;99.90
65404;DHT22;52014;52.088;5.096;2023-04-01T23:15:44;9.20;99.90
65404;DHT22;52014;52.088;5.096;2023-04-01T23:18:44;9.10;99.90
65404;DHT22;52014;52.088;5.096;2023-04-01T23:21:06;9.20;99.90
65404;DHT22;52014;52.088;5.096;2023-04-01T23:28:51;9.10;99.90
65404;DHT22;52014;52.088;5.096;2023-04-01T23:33:56;9.00;99.90
65404;DHT22;52014;52.088;5.096;2023-04-01T23:36:22;9.00;99.90
65404;DHT22;52014;52.088;5.096;2023-04-01T23:38:48;9.00;99.90
65404;DHT22;52014;52.088;5.096;2023-04-01T23:41:25;9.10;99.90
65404;DHT22;52014;52.088;5.096;2023-04-01T23:44:04;9.00;99.90
65404;DHT22;52014;52.088;5.096;2023-04-01T23:46:31;9.10;99.90
65404;DHT22;52014;52.088;5.096;2023-04-01T23:48:58;9.00;99.90
65404;DHT22;52014;52.088;5.096;2023-04-01T23:51:26;8.90;99.90
65404;DHT22;52014;52.088;5.096;2023-04-01T23:53:56;8.90;99.90